sensor_id;sensor_type;location;lat;lon;timestamp;P1;durP1;ratioP1;P2;durP2;ratioP2
78752;SDS011;68072;51.688;7.842;2023-08-06T00:00:37;9.27;;;6.00;;
78752;SDS011;68072;51.688;7.842;2023-08-06T00:03:02;8.35;;;5.55;;
78752;SDS011;68072;51.688;7.842;2023-08-06T00:05:28;8.40;;;5.97;;
78752;SDS011;68072;51.688;7.842;2023-08-06T00:07:53;8.53;;;6.13;;
78752;SDS011;68072;51.688;7.842;2023-08-06T00:10:18;9.63;;;5.73;;
78752;SDS011;68072;51.688;7.842;2023-08-06T00:12:43;10.13;;;6.77;;
78752;SDS011;68072;51.688;7.842;2023-08-06T00:15:10;14.60;;;6.55;;
78752;SDS011;68072;51.688;7.842;2023-08-06T00:17:35;10.43;;;6.28;;
78752;SDS011;68072;51.688;7.842;2023-08-06T00:20:01;10.53;;;6.03;;
78752;SDS011;68072;51.688;7.842;2023-08-06T00:22:33;13.70;;;6.22;;
78752;SDS011;68072;51.688;7.842;2023-08-06T00:24:58;11.38;;;6.63;;
78752;SDS011;68072;51.688;7.842;2023-08-06T00:27:23;10.07;;;5.53;;
78752;SDS011;68072;51.688;7.842;2023-08-06T00:29:48;9.00;;;5.97;;
78752;SDS011;68072;51.688;7.842;2023-08-06T00:32:14;9.53;;;6.03;;
78752;SDS011;68072;51.688;7.842;2023-08-06T00:34:39;8.23;;;5.83;;
78752;SDS011;68072;51.688;7.842;2023-08-06T00:37:04;9.00;;;5.72;;
78752;SDS011;68072;51.688;7.842;2023-08-06T00:39:30;11.33;;;5.80;;
78752;SDS011;68072;51.688;7.842;2023-08-06T00:41:55;8.07;;;5.60;;
78752;SDS011;68072;51.688;7.842;2023-08-06T00:44:20;13.23;;;5.80;;
78752;SDS011;68072;51.688;7.842;2023-08-06T00:46:45;8.93;;;5.50;;
78752;SDS011;68072;51.688;7.842;2023-08-06T00:49:11;7.43;;;6.20;;
78752;SDS011;68072;51.688;7.842;2023-08-06T00:51:36;10.60;;;5.70;;
78752;SDS011;68072;51.688;7.842;2023-08-06T00:54:02;9.05;;;5.90;;
78752;SDS011;68072;51.688;7.842;2023-08-06T00:56:27;9.80;;;6.07;;
78752;SDS011;68072;51.688;7.842;2023-08-06T00:58:53;9.38;;;6.55;;
78752;SDS011;68072;51.688;7.842;2023-08-06T01:01:19;10.98;;;6.18;;
78752;SDS011;68072;51.688;7.842;2023-08-06T01:03:44;8.87;;;5.73;;
78752;SDS011;68072;51.688;7.842;2023-08-06T01:06:09;9.70;;;5.60;;
78752;SDS011;68072;51.688;7.842;2023-08-06T01:08:54;8.07;;;6.00;;
78752;SDS011;68072;51.688;7.842;2023-08-06T01:13:58;9.57;;;5.78;;
78752;SDS011;68072;51.688;7.842;2023-08-06T01:16:24;12.45;;;6.93;;
78752;SDS011;68072;51.688;7.842;2023-08-06T01:18:50;10.55;;;6.32;;
78752;SDS011;68072;51.688;7.842;2023-08-06T01:21:15;9.23;;;6.25;;
78752;SDS011;68072;51.688;7.842;2023-08-06T01:23:41;12.27;;;6.50;;
78752;SDS011;68072;51.688;7.842;2023-08-06T01:28:50;7.63;;;5.43;;
78752;SDS011;68072;51.688;7.842;2023-08-06T01:31:26;11.27;;;6.05;;
78752;SDS011;68072;51.688;7.842;2023-08-06T01:33:51;9.30;;;6.18;;
78752;SDS011;68072;51.688;7.842;2023-08-06T01:36:18;11.45;;;5.97;;
78752;SDS011;68072;51.688;7.842;2023-08-06T01:38:44;14.35;;;6.43;;
78752;SDS011;68072;51.688;7.842;2023-08-06T01:41:09;7.53;;;5.43;;
78752;SDS011;68072;51.688;7.842;2023-08-06T01:43:34;7.83;;;5.50;;
78752;SDS011;68072;51.688;7.842;2023-08-06T01:46:00;8.27;;;5.67;;
78752;SDS011;68072;51.688;7.842;2023-08-06T01:48:25;6.30;;;4.97;;
78752;SDS011;68072;51.688;7.842;2023-08-06T01:50:53;8.25;;;5.22;;
78752;SDS011;68072;51.688;7.842;2023-08-06T01:53:18;7.70;;;5.30;;
78752;SDS011;68072;51.688;7.842;2023-08-06T01:55:47;9.30;;;5.40;;
78752;SDS011;68072;51.688;7.842;2023-08-06T01:58:13;11.93;;;6.03;;
78752;SDS011;68072;51.688;7.842;2023-08-06T02:00:38;12.07;;;6.10;;
78752;SDS011;68072;51.688;7.842;2023-08-06T02:03:03;12.60;;;6.53;;
78752;SDS011;68072;51.688;7.842;2023-08-06T02:05:28;9.27;;;6.40;;
78752;SDS011;68072;51.688;7.842;2023-08-06T02:07:54;12.83;;;6.97;;
78752;SDS011;68072;51.688;7.842;2023-08-06T02:10:19;11.80;;;6.63;;
78752;SDS011;68072;51.688;7.842;2023-08-06T02:12:44;8.90;;;6.03;;
78752;SDS011;68072;51.688;7.842;2023-08-06T02:15:09;8.97;;;5.97;;
78752;SDS011;68072;51.688;7.842;2023-08-06T02:17:35;10.93;;;6.33;;
78752;SDS011;68072;51.688;7.842;2023-08-06T02:20:00;11.93;;;6.87;;
78752;SDS011;68072;51.688;7.842;2023-08-06T02:22:26;14.23;;;6.25;;
78752;SDS011;68072;51.688;7.842;2023-08-06T02:24:51;9.87;;;5.50;;
78752;SDS011;68072;51.688;7.842;2023-08-06T02:27:16;9.40;;;5.80;;
78752;SDS011;68072;51.688;7.842;2023-08-06T02:29:41;7.47;;;5.20;;
78752;SDS011;68072;51.688;7.842;2023-08-06T02:32:07;11.37;;;5.67;;
78752;SDS011;68072;51.688;7.842;2023-08-06T02:34:32;12.48;;;5.70;;
78752;SDS011;68072;51.688;7.842;2023-08-06T02:36:57;10.10;;;5.77;;
78752;SDS011;68072;51.688;7.842;2023-08-06T02:39:23;8.97;;;5.80;;
78752;SDS011;68072;51.688;7.842;2023-08-06T02:41:48;11.87;;;5.77;;
78752;SDS011;68072;51.688;7.842;2023-08-06T02:44:13;7.93;;;5.93;;
78752;SDS011;68072;51.688;7.842;2023-08-06T02:46:38;14.23;;;6.90;;
78752;SDS011;68072;51.688;7.842;2023-08-06T02:49:03;13.63;;;6.67;;
78752;SDS011;68072;51.688;7.842;2023-08-06T02:51:29;13.40;;;6.20;;
78752;SDS011;68072;51.688;7.842;2023-08-06T02:53:54;9.07;;;6.50;;
78752;SDS011;68072;51.688;7.842;2023-08-06T02:56:19;10.17;;;6.57;;
78752;SDS011;68072;51.688;7.842;2023-08-06T02:58:44;12.60;;;6.20;;
78752;SDS011;68072;51.688;7.842;2023-08-06T03:01:10;16.63;;;6.87;;
78752;SDS011;68072;51.688;7.842;2023-08-06T03:03:35;9.33;;;6.07;;
78752;SDS011;68072;51.688;7.842;2023-08-06T03:06:00;11.47;;;6.13;;
78752;SDS011;68072;51.688;7.842;2023-08-06T03:08:26;9.90;;;6.45;;
78752;SDS011;68072;51.688;7.842;2023-08-06T03:10:51;8.33;;;5.90;;
78752;SDS011;68072;51.688;7.842;2023-08-06T03:13:17;11.75;;;6.10;;
78752;SDS011;68072;51.688;7.842;2023-08-06T03:15:42;10.80;;;6.32;;
78752;SDS011;68072;51.688;7.842;2023-08-06T03:18:07;8.65;;;5.97;;
78752;SDS011;68072;51.688;7.842;2023-08-06T03:20:33;9.43;;;6.30;;
78752;SDS011;68072;51.688;7.842;2023-08-06T03:22:58;6.57;;;5.17;;
78752;SDS011;68072;51.688;7.842;2023-08-06T03:25:23;8.93;;;6.13;;
78752;SDS011;68072;51.688;7.842;2023-08-06T03:27:48;10.10;;;5.27;;
78752;SDS011;68072;51.688;7.842;2023-08-06T03:30:13;6.57;;;5.30;;
78752;SDS011;68072;51.688;7.842;2023-08-06T03:32:39;7.80;;;5.33;;
78752;SDS011;68072;51.688;7.842;2023-08-06T03:35:04;9.43;;;5.50;;
78752;SDS011;68072;51.688;7.842;2023-08-06T03:37:29;12.43;;;6.50;;
78752;SDS011;68072;51.688;7.842;2023-08-06T03:39:55;12.07;;;6.97;;
78752;SDS011;68072;51.688;7.842;2023-08-06T03:42:20;9.17;;;6.03;;
78752;SDS011;68072;51.688;7.842;2023-08-06T03:44:45;8.47;;;6.10;;
78752;SDS011;68072;51.688;7.842;2023-08-06T03:47:10;15.17;;;7.33;;
78752;SDS011;68072;51.688;7.842;2023-08-06T03:49:36;8.57;;;6.00;;
78752;SDS011;68072;51.688;7.842;2023-08-06T03:52:01;9.57;;;6.13;;
78752;SDS011;68072;51.688;7.842;2023-08-06T03:54:26;12.93;;;6.37;;
78752;SDS011;68072;51.688;7.842;2023-08-06T03:56:51;11.73;;;6.27;;
78752;SDS011;68072;51.688;7.842;2023-08-06T03:59:17;13.97;;;7.10;;
78752;SDS011;68072;51.688;7.842;2023-08-06T04:01:42;8.53;;;5.97;;
78752;SDS011;68072;51.688;7.842;2023-08-06T04:04:07;9.27;;;6.13;;
78752;SDS011;68072;51.688;7.842;2023-08-06T04:06:32;8.73;;;5.47;;
78752;SDS011;68072;51.688;7.842;2023-08-06T04:08:58;8.87;;;6.23;;
78752;SDS011;68072;51.688;7.842;2023-08-06T04:11:23;9.20;;;6.10;;
78752;SDS011;68072;51.688;7.842;2023-08-06T04:13:48;9.20;;;6.27;;
78752;SDS011;68072;51.688;7.842;2023-08-06T04:16:13;13.03;;;6.43;;
78752;SDS011;68072;51.688;7.842;2023-08-06T04:18:39;12.45;;;6.07;;
78752;SDS011;68072;51.688;7.842;2023-08-06T04:21:05;9.97;;;6.13;;
78752;SDS011;68072;51.688;7.842;2023-08-06T04:23:30;16.67;;;6.67;;
78752;SDS011;68072;51.688;7.842;2023-08-06T04:25:58;11.33;;;6.60;;
78752;SDS011;68072;51.688;7.842;2023-08-06T04:28:23;9.75;;;6.25;;
78752;SDS011;68072;51.688;7.842;2023-08-06T04:30:49;11.83;;;6.13;;
78752;SDS011;68072;51.688;7.842;2023-08-06T04:33:14;10.63;;;6.17;;
78752;SDS011;68072;51.688;7.842;2023-08-06T04:35:39;7.60;;;5.37;;
78752;SDS011;68072;51.688;7.842;2023-08-06T04:38:04;9.23;;;6.07;;
78752;SDS011;68072;51.688;7.842;2023-08-06T04:40:30;16.57;;;5.90;;
78752;SDS011;68072;51.688;7.842;2023-08-06T04:42:57;9.07;;;5.82;;
78752;SDS011;68072;51.688;7.842;2023-08-06T04:45:22;12.07;;;6.43;;
78752;SDS011;68072;51.688;7.842;2023-08-06T04:47:49;10.70;;;5.97;;
78752;SDS011;68072;51.688;7.842;2023-08-06T04:50:14;10.50;;;6.67;;
78752;SDS011;68072;51.688;7.842;2023-08-06T04:52:39;10.03;;;6.37;;
78752;SDS011;68072;51.688;7.842;2023-08-06T04:55:05;12.70;;;6.07;;
78752;SDS011;68072;51.688;7.842;2023-08-06T04:57:31;12.77;;;6.30;;
78752;SDS011;68072;51.688;7.842;2023-08-06T04:59:56;9.93;;;5.97;;
78752;SDS011;68072;51.688;7.842;2023-08-06T05:02:21;10.50;;;5.70;;
78752;SDS011;68072;51.688;7.842;2023-08-06T05:04:47;11.90;;;6.43;;
78752;SDS011;68072;51.688;7.842;2023-08-06T05:07:12;8.23;;;5.70;;
78752;SDS011;68072;51.688;7.842;2023-08-06T05:09:37;6.90;;;5.23;;
78752;SDS011;68072;51.688;7.842;2023-08-06T05:12:03;10.07;;;6.23;;
78752;SDS011;68072;51.688;7.842;2023-08-06T05:14:29;10.23;;;5.80;;
78752;SDS011;68072;51.688;7.842;2023-08-06T05:16:54;9.63;;;5.90;;
78752;SDS011;68072;51.688;7.842;2023-08-06T05:19:19;7.83;;;5.67;;
78752;SDS011;68072;51.688;7.842;2023-08-06T05:21:44;13.63;;;6.27;;
78752;SDS011;68072;51.688;7.842;2023-08-06T05:24:09;7.97;;;5.90;;
78752;SDS011;68072;51.688;7.842;2023-08-06T05:26:35;7.20;;;5.13;;
78752;SDS011;68072;51.688;7.842;2023-08-06T05:29:00;8.83;;;5.73;;
78752;SDS011;68072;51.688;7.842;2023-08-06T05:31:26;7.90;;;5.28;;
78752;SDS011;68072;51.688;7.842;2023-08-06T05:33:53;9.55;;;5.10;;
78752;SDS011;68072;51.688;7.842;2023-08-06T05:36:19;7.13;;;5.00;;
78752;SDS011;68072;51.688;7.842;2023-08-06T05:38:44;9.40;;;5.47;;
78752;SDS011;68072;51.688;7.842;2023-08-06T05:41:09;10.87;;;5.70;;
78752;SDS011;68072;51.688;7.842;2023-08-06T05:43:34;7.23;;;5.10;;
78752;SDS011;68072;51.688;7.842;2023-08-06T05:45:59;7.10;;;5.40;;
78752;SDS011;68072;51.688;7.842;2023-08-06T05:48:25;7.60;;;5.50;;
78752;SDS011;68072;51.688;7.842;2023-08-06T05:50:51;6.83;;;5.20;;
78752;SDS011;68072;51.688;7.842;2023-08-06T05:53:16;6.82;;;4.93;;
78752;SDS011;68072;51.688;7.842;2023-08-06T05:55:42;9.05;;;5.18;;
78752;SDS011;68072;51.688;7.842;2023-08-06T05:58:07;10.27;;;5.07;;
78752;SDS011;68072;51.688;7.842;2023-08-06T06:00:32;8.23;;;5.00;;
78752;SDS011;68072;51.688;7.842;2023-08-06T06:02:57;8.83;;;4.93;;
78752;SDS011;68072;51.688;7.842;2023-08-06T06:05:22;7.00;;;5.20;;
78752;SDS011;68072;51.688;7.842;2023-08-06T06:07:48;8.57;;;4.87;;
78752;SDS011;68072;51.688;7.842;2023-08-06T06:10:13;7.43;;;5.57;;
78752;SDS011;68072;51.688;7.842;2023-08-06T06:12:38;10.37;;;5.33;;
78752;SDS011;68072;51.688;7.842;2023-08-06T06:15:04;8.82;;;5.22;;
78752;SDS011;68072;51.688;7.842;2023-08-06T06:17:29;7.07;;;5.05;;
78752;SDS011;68072;51.688;7.842;2023-08-06T06:19:55;6.57;;;5.23;;
78752;SDS011;68072;51.688;7.842;2023-08-06T06:22:20;5.97;;;4.87;;
78752;SDS011;68072;51.688;7.842;2023-08-06T06:24:45;9.67;;;4.87;;
78752;SDS011;68072;51.688;7.842;2023-08-06T06:27:10;8.57;;;4.25;;
78752;SDS011;68072;51.688;7.842;2023-08-06T06:29:36;5.20;;;4.33;;
78752;SDS011;68072;51.688;7.842;2023-08-06T06:32:01;6.03;;;4.83;;
78752;SDS011;68072;51.688;7.842;2023-08-06T06:34:26;6.00;;;4.50;;
78752;SDS011;68072;51.688;7.842;2023-08-06T06:36:51;8.57;;;4.53;;
78752;SDS011;68072;51.688;7.842;2023-08-06T06:39:17;7.70;;;4.97;;
78752;SDS011;68072;51.688;7.842;2023-08-06T06:41:42;10.35;;;5.20;;
78752;SDS011;68072;51.688;7.842;2023-08-06T06:44:09;5.68;;;4.97;;
78752;SDS011;68072;51.688;7.842;2023-08-06T06:46:34;8.30;;;5.70;;
78752;SDS011;68072;51.688;7.842;2023-08-06T06:48:59;8.10;;;4.77;;
78752;SDS011;68072;51.688;7.842;2023-08-06T06:51:25;7.00;;;4.80;;
78752;SDS011;68072;51.688;7.842;2023-08-06T06:53:50;7.47;;;4.70;;
78752;SDS011;68072;51.688;7.842;2023-08-06T06:56:15;6.07;;;4.43;;
78752;SDS011;68072;51.688;7.842;2023-08-06T06:58:40;9.40;;;4.87;;
78752;SDS011;68072;51.688;7.842;2023-08-06T07:01:06;6.78;;;4.38;;
78752;SDS011;68072;51.688;7.842;2023-08-06T07:03:32;5.68;;;4.65;;
78752;SDS011;68072;51.688;7.842;2023-08-06T07:05:57;10.73;;;3.77;;
78752;SDS011;68072;51.688;7.842;2023-08-06T07:08:24;7.32;;;3.20;;
78752;SDS011;68072;51.688;7.842;2023-08-06T07:10:49;5.00;;;2.63;;
78752;SDS011;68072;51.688;7.842;2023-08-06T07:15:40;7.75;;;2.60;;
78752;SDS011;68072;51.688;7.842;2023-08-06T07:20:30;3.50;;;2.80;;
78752;SDS011;68072;51.688;7.842;2023-08-06T07:22:58;2.63;;;1.90;;
78752;SDS011;68072;51.688;7.842;2023-08-06T07:27:48;3.67;;;2.40;;
78752;SDS011;68072;51.688;7.842;2023-08-06T07:32:39;2.10;;;1.90;;
78752;SDS011;68072;51.688;7.842;2023-08-06T07:37:29;2.23;;;1.83;;
78752;SDS011;68072;51.688;7.842;2023-08-06T07:42:20;3.90;;;2.30;;
78752;SDS011;68072;51.688;7.842;2023-08-06T07:44:53;2.83;;;1.98;;
78752;SDS011;68072;51.688;7.842;2023-08-06T07:47:18;3.05;;;2.30;;
78752;SDS011;68072;51.688;7.842;2023-08-06T07:49:44;6.77;;;2.13;;
78752;SDS011;68072;51.688;7.842;2023-08-06T07:54:34;3.37;;;2.10;;
78752;SDS011;68072;51.688;7.842;2023-08-06T07:59:25;2.40;;;2.00;;
78752;SDS011;68072;51.688;7.842;2023-08-06T08:01:50;3.83;;;2.50;;
78752;SDS011;68072;51.688;7.842;2023-08-06T08:04:16;4.03;;;2.00;;
78752;SDS011;68072;51.688;7.842;2023-08-06T08:06:42;3.20;;;2.17;;
78752;SDS011;68072;51.688;7.842;2023-08-06T08:09:07;4.07;;;2.43;;
78752;SDS011;68072;51.688;7.842;2023-08-06T08:11:32;4.00;;;1.90;;
78752;SDS011;68072;51.688;7.842;2023-08-06T08:13:58;4.53;;;2.27;;
78752;SDS011;68072;51.688;7.842;2023-08-06T08:18:48;2.30;;;1.67;;
78752;SDS011;68072;51.688;7.842;2023-08-06T08:23:38;6.45;;;2.10;;
78752;SDS011;68072;51.688;7.842;2023-08-06T08:28:30;3.37;;;2.37;;
78752;SDS011;68072;51.688;7.842;2023-08-06T08:30:55;2.10;;;1.90;;
78752;SDS011;68072;51.688;7.842;2023-08-06T08:35:45;3.60;;;1.90;;
78752;SDS011;68072;51.688;7.842;2023-08-06T08:40:37;1.70;;;1.60;;
78752;SDS011;68072;51.688;7.842;2023-08-06T08:43:06;4.97;;;1.95;;
78752;SDS011;68072;51.688;7.842;2023-08-06T08:47:56;3.07;;;1.60;;
78752;SDS011;68072;51.688;7.842;2023-08-06T08:52:47;1.60;;;1.50;;
78752;SDS011;68072;51.688;7.842;2023-08-06T08:55:14;4.00;;;1.80;;
78752;SDS011;68072;51.688;7.842;2023-08-06T09:00:05;1.58;;;1.40;;
78752;SDS011;68072;51.688;7.842;2023-08-06T09:02:30;2.55;;;1.63;;
78752;SDS011;68072;51.688;7.842;2023-08-06T09:05:00;1.60;;;1.50;;
78752;SDS011;68072;51.688;7.842;2023-08-06T09:12:19;3.73;;;1.93;;
78752;SDS011;68072;51.688;7.842;2023-08-06T09:14:45;1.90;;;1.63;;
78752;SDS011;68072;51.688;7.842;2023-08-06T09:19:36;1.70;;;1.60;;
78752;SDS011;68072;51.688;7.842;2023-08-06T09:24:27;1.40;;;1.30;;
78752;SDS011;68072;51.688;7.842;2023-08-06T09:29:18;2.47;;;1.80;;
78752;SDS011;68072;51.688;7.842;2023-08-06T09:31:44;3.90;;;1.77;;
78752;SDS011;68072;51.688;7.842;2023-08-06T09:34:19;1.65;;;1.55;;
78752;SDS011;68072;51.688;7.842;2023-08-06T09:36:46;3.55;;;1.88;;
78752;SDS011;68072;51.688;7.842;2023-08-06T09:39:15;3.30;;;1.95;;
78752;SDS011;68072;51.688;7.842;2023-08-06T09:41:41;2.10;;;1.63;;
78752;SDS011;68072;51.688;7.842;2023-08-06T09:46:32;3.45;;;1.80;;
78752;SDS011;68072;51.688;7.842;2023-08-06T09:51:22;1.98;;;1.30;;
78752;SDS011;68072;51.688;7.842;2023-08-06T09:56:12;1.73;;;1.52;;
78752;SDS011;68072;51.688;7.842;2023-08-06T09:58:39;2.20;;;1.45;;
78752;SDS011;68072;51.688;7.842;2023-08-06T10:03:29;2.45;;;1.52;;
78752;SDS011;68072;51.688;7.842;2023-08-06T10:08:20;2.15;;;1.58;;
78752;SDS011;68072;51.688;7.842;2023-08-06T10:13:11;3.83;;;1.70;;
78752;SDS011;68072;51.688;7.842;2023-08-06T10:15:37;2.60;;;1.50;;
78752;SDS011;68072;51.688;7.842;2023-08-06T10:20:32;4.28;;;1.27;;
78752;SDS011;68072;51.688;7.842;2023-08-06T10:23:04;2.45;;;1.48;;
78752;SDS011;68072;51.688;7.842;2023-08-06T10:25:30;2.17;;;1.55;;
78752;SDS011;68072;51.688;7.842;2023-08-06T10:27:56;1.45;;;1.35;;
78752;SDS011;68072;51.688;7.842;2023-08-06T10:32:51;2.30;;;1.50;;
78752;SDS011;68072;51.688;7.842;2023-08-06T10:38:19;2.70;;;1.20;;
78752;SDS011;68072;51.688;7.842;2023-08-06T10:43:33;1.40;;;1.30;;
78752;SDS011;68072;51.688;7.842;2023-08-06T10:45:59;1.50;;;1.40;;
78752;SDS011;68072;51.688;7.842;2023-08-06T10:48:34;1.67;;;1.20;;
78752;SDS011;68072;51.688;7.842;2023-08-06T10:51:01;4.43;;;1.50;;
78752;SDS011;68072;51.688;7.842;2023-08-06T10:55:52;3.07;;;2.40;;
78752;SDS011;68072;51.688;7.842;2023-08-06T10:58:17;2.77;;;1.37;;
78752;SDS011;68072;51.688;7.842;2023-08-06T11:03:08;1.38;;;1.13;;
78752;SDS011;68072;51.688;7.842;2023-08-06T11:05:33;1.55;;;1.20;;
78752;SDS011;68072;51.688;7.842;2023-08-06T11:07:58;1.87;;;1.53;;
78752;SDS011;68072;51.688;7.842;2023-08-06T11:10:24;2.10;;;1.30;;
78752;SDS011;68072;51.688;7.842;2023-08-06T11:12:49;2.05;;;1.50;;
78752;SDS011;68072;51.688;7.842;2023-08-06T11:15:14;2.43;;;1.50;;
78752;SDS011;68072;51.688;7.842;2023-08-06T11:17:40;2.50;;;1.57;;
78752;SDS011;68072;51.688;7.842;2023-08-06T11:20:06;1.42;;;1.33;;
78752;SDS011;68072;51.688;7.842;2023-08-06T11:24:57;2.87;;;1.47;;
78752;SDS011;68072;51.688;7.842;2023-08-06T11:29:47;3.00;;;1.47;;
78752;SDS011;68072;51.688;7.842;2023-08-06T11:34:38;1.80;;;1.60;;
78752;SDS011;68072;51.688;7.842;2023-08-06T11:37:04;2.63;;;1.58;;
78752;SDS011;68072;51.688;7.842;2023-08-06T11:39:31;1.63;;;1.52;;
78752;SDS011;68072;51.688;7.842;2023-08-06T11:41:57;1.70;;;1.35;;
78752;SDS011;68072;51.688;7.842;2023-08-06T11:44:25;1.50;;;1.40;;
78752;SDS011;68072;51.688;7.842;2023-08-06T11:49:17;1.48;;;1.38;;
78752;SDS011;68072;51.688;7.842;2023-08-06T11:51:46;1.92;;;1.80;;
78752;SDS011;68072;51.688;7.842;2023-08-06T11:56:36;2.13;;;1.65;;
78752;SDS011;68072;51.688;7.842;2023-08-06T12:01:27;1.23;;;1.23;;
78752;SDS011;68072;51.688;7.842;2023-08-06T12:06:18;1.73;;;1.60;;
78752;SDS011;68072;51.688;7.842;2023-08-06T12:11:09;2.72;;;1.90;;
78752;SDS011;68072;51.688;7.842;2023-08-06T12:13:34;3.23;;;1.90;;
78752;SDS011;68072;51.688;7.842;2023-08-06T12:18:24;1.70;;;1.60;;
78752;SDS011;68072;51.688;7.842;2023-08-06T12:20:50;1.80;;;1.70;;
78752;SDS011;68072;51.688;7.842;2023-08-06T12:25:41;3.50;;;2.10;;
78752;SDS011;68072;51.688;7.842;2023-08-06T12:30:32;3.88;;;2.58;;
78752;SDS011;68072;51.688;7.842;2023-08-06T12:32:58;2.67;;;2.47;;
78752;SDS011;68072;51.688;7.842;2023-08-06T12:37:50;2.75;;;2.28;;
78752;SDS011;68072;51.688;7.842;2023-08-06T12:40:19;4.88;;;2.78;;
78752;SDS011;68072;51.688;7.842;2023-08-06T12:42:44;4.83;;;3.00;;
78752;SDS011;68072;51.688;7.842;2023-08-06T12:47:34;4.80;;;3.00;;
78752;SDS011;68072;51.688;7.842;2023-08-06T12:52:25;2.72;;;2.47;;
78752;SDS011;68072;51.688;7.842;2023-08-06T12:54:50;3.17;;;2.40;;
78752;SDS011;68072;51.688;7.842;2023-08-06T12:57:15;8.67;;;3.33;;
78752;SDS011;68072;51.688;7.842;2023-08-06T12:59:41;10.90;;;3.27;;
78752;SDS011;68072;51.688;7.842;2023-08-06T13:02:06;6.37;;;4.00;;
78752;SDS011;68072;51.688;7.842;2023-08-06T13:04:31;9.83;;;3.93;;
78752;SDS011;68072;51.688;7.842;2023-08-06T13:06:58;5.38;;;4.03;;
78752;SDS011;68072;51.688;7.842;2023-08-06T13:09:23;5.33;;;4.07;;
78752;SDS011;68072;51.688;7.842;2023-08-06T13:11:49;7.90;;;4.45;;
78752;SDS011;68072;51.688;7.842;2023-08-06T13:14:15;16.23;;;4.72;;
78752;SDS011;68072;51.688;7.842;2023-08-06T13:16:41;26.45;;;7.32;;
78752;SDS011;68072;51.688;7.842;2023-08-06T13:19:06;13.68;;;5.68;;
78752;SDS011;68072;51.688;7.842;2023-08-06T13:22:14;14.32;;;7.00;;
78752;SDS011;68072;51.688;7.842;2023-08-06T13:24:20;7.57;;;1.95;;
78752;SDS011;68072;51.688;7.842;2023-08-06T13:26:46;3.97;;;1.48;;
78752;SDS011;68072;51.688;7.842;2023-08-06T13:29:11;5.73;;;1.93;;
78752;SDS011;68072;51.688;7.842;2023-08-06T13:31:37;2.47;;;1.40;;
78752;SDS011;68072;51.688;7.842;2023-08-06T13:36:28;2.50;;;1.70;;
78752;SDS011;68072;51.688;7.842;2023-08-06T13:38:53;3.40;;;2.15;;
78752;SDS011;68072;51.688;7.842;2023-08-06T13:41:19;6.25;;;2.70;;
78752;SDS011;68072;51.688;7.842;2023-08-06T13:43:44;17.63;;;3.05;;
78752;SDS011;68072;51.688;7.842;2023-08-06T13:46:10;6.95;;;2.15;;
78752;SDS011;68072;51.688;7.842;2023-08-06T13:48:39;11.93;;;2.47;;
78752;SDS011;68072;51.688;7.842;2023-08-06T13:51:05;2.43;;;1.80;;
78752;SDS011;68072;51.688;7.842;2023-08-06T13:53:30;7.27;;;2.13;;
78752;SDS011;68072;51.688;7.842;2023-08-06T13:55:56;3.73;;;2.37;;
78752;SDS011;68072;51.688;7.842;2023-08-06T13:58:22;3.85;;;2.33;;
78752;SDS011;68072;51.688;7.842;2023-08-06T14:00:47;2.40;;;1.97;;
78752;SDS011;68072;51.688;7.842;2023-08-06T14:03:12;1.50;;;1.33;;
78752;SDS011;68072;51.688;7.842;2023-08-06T14:05:37;6.00;;;2.55;;
78752;SDS011;68072;51.688;7.842;2023-08-06T14:08:03;8.13;;;1.77;;
78752;SDS011;68072;51.688;7.842;2023-08-06T14:10:28;10.23;;;1.92;;
78752;SDS011;68072;51.688;7.842;2023-08-06T14:12:54;3.75;;;1.65;;
78752;SDS011;68072;51.688;7.842;2023-08-06T14:15:19;5.77;;;2.20;;
78752;SDS011;68072;51.688;7.842;2023-08-06T14:17:44;14.20;;;2.47;;
78752;SDS011;68072;51.688;7.842;2023-08-06T14:20:10;4.37;;;2.50;;
78752;SDS011;68072;51.688;7.842;2023-08-06T14:22:37;3.55;;;2.42;;
78752;SDS011;68072;51.688;7.842;2023-08-06T14:25:02;2.80;;;2.10;;
78752;SDS011;68072;51.688;7.842;2023-08-06T14:27:28;3.13;;;2.50;;
78752;SDS011;68072;51.688;7.842;2023-08-06T14:29:53;4.13;;;2.80;;
78752;SDS011;68072;51.688;7.842;2023-08-06T14:32:18;6.40;;;2.80;;
78752;SDS011;68072;51.688;7.842;2023-08-06T14:34:44;2.75;;;2.40;;
78752;SDS011;68072;51.688;7.842;2023-08-06T14:37:10;4.57;;;2.10;;
78752;SDS011;68072;51.688;7.842;2023-08-06T14:39:35;3.25;;;2.35;;
78752;SDS011;68072;51.688;7.842;2023-08-06T14:42:01;2.30;;;1.85;;
78752;SDS011;68072;51.688;7.842;2023-08-06T14:44:27;4.15;;;2.00;;
78752;SDS011;68072;51.688;7.842;2023-08-06T14:46:52;3.10;;;1.67;;
78752;SDS011;68072;51.688;7.842;2023-08-06T14:49:17;3.30;;;2.43;;
78752;SDS011;68072;51.688;7.842;2023-08-06T14:51:42;3.97;;;2.27;;
78752;SDS011;68072;51.688;7.842;2023-08-06T14:54:08;3.30;;;2.20;;
78752;SDS011;68072;51.688;7.842;2023-08-06T14:56:33;2.70;;;1.93;;
78752;SDS011;68072;51.688;7.842;2023-08-06T14:58:58;3.13;;;2.10;;
78752;SDS011;68072;51.688;7.842;2023-08-06T15:01:24;2.47;;;1.80;;
78752;SDS011;68072;51.688;7.842;2023-08-06T15:03:49;4.30;;;1.90;;
78752;SDS011;68072;51.688;7.842;2023-08-06T15:06:14;2.10;;;1.90;;
78752;SDS011;68072;51.688;7.842;2023-08-06T15:08:39;1.70;;;1.60;;
78752;SDS011;68072;51.688;7.842;2023-08-06T15:11:05;2.00;;;1.80;;
78752;SDS011;68072;51.688;7.842;2023-08-06T15:13:30;2.37;;;2.07;;
78752;SDS011;68072;51.688;7.842;2023-08-06T15:15:55;2.73;;;1.97;;
78752;SDS011;68072;51.688;7.842;2023-08-06T15:18:20;2.20;;;2.00;;
78752;SDS011;68072;51.688;7.842;2023-08-06T15:20:46;3.43;;;2.37;;
78752;SDS011;68072;51.688;7.842;2023-08-06T15:23:11;3.95;;;2.00;;
78752;SDS011;68072;51.688;7.842;2023-08-06T15:25:36;1.97;;;1.73;;
78752;SDS011;68072;51.688;7.842;2023-08-06T15:28:02;1.92;;;1.80;;
78752;SDS011;68072;51.688;7.842;2023-08-06T15:30:27;4.27;;;2.10;;
78752;SDS011;68072;51.688;7.842;2023-08-06T15:32:52;2.83;;;1.90;;
78752;SDS011;68072;51.688;7.842;2023-08-06T15:35:18;2.83;;;1.97;;
78752;SDS011;68072;51.688;7.842;2023-08-06T15:37:43;3.15;;;2.10;;
78752;SDS011;68072;51.688;7.842;2023-08-06T15:40:08;3.27;;;2.30;;
78752;SDS011;68072;51.688;7.842;2023-08-06T15:42:34;5.18;;;2.50;;
78752;SDS011;68072;51.688;7.842;2023-08-06T15:44:59;3.10;;;2.40;;
78752;SDS011;68072;51.688;7.842;2023-08-06T15:47:24;2.63;;;2.10;;
78752;SDS011;68072;51.688;7.842;2023-08-06T15:49:50;2.13;;;1.90;;
78752;SDS011;68072;51.688;7.842;2023-08-06T15:52:15;2.53;;;2.10;;
78752;SDS011;68072;51.688;7.842;2023-08-06T15:54:42;2.72;;;1.90;;
78752;SDS011;68072;51.688;7.842;2023-08-06T15:57:07;2.63;;;1.90;;
78752;SDS011;68072;51.688;7.842;2023-08-06T15:59:33;2.50;;;1.80;;
78752;SDS011;68072;51.688;7.842;2023-08-06T16:01:58;2.73;;;1.80;;
78752;SDS011;68072;51.688;7.842;2023-08-06T16:04:27;3.88;;;3.58;;
78752;SDS011;68072;51.688;7.842;2023-08-06T16:06:53;1.85;;;1.75;;
78752;SDS011;68072;51.688;7.842;2023-08-06T16:09:18;2.55;;;1.90;;
78752;SDS011;68072;51.688;7.842;2023-08-06T16:11:44;3.73;;;2.00;;
78752;SDS011;68072;51.688;7.842;2023-08-06T16:14:09;4.00;;;2.17;;
78752;SDS011;68072;51.688;7.842;2023-08-06T16:16:35;2.05;;;1.85;;
78752;SDS011;68072;51.688;7.842;2023-08-06T16:19:03;2.63;;;2.10;;
78752;SDS011;68072;51.688;7.842;2023-08-06T16:21:29;2.25;;;2.05;;
78752;SDS011;68072;51.688;7.842;2023-08-06T16:23:54;2.30;;;2.10;;
78752;SDS011;68072;51.688;7.842;2023-08-06T16:26:20;3.47;;;2.50;;
78752;SDS011;68072;51.688;7.842;2023-08-06T16:28:45;5.88;;;2.75;;
78752;SDS011;68072;51.688;7.842;2023-08-06T16:31:11;3.47;;;2.80;;
78752;SDS011;68072;51.688;7.842;2023-08-06T16:33:36;3.53;;;2.67;;
78752;SDS011;68072;51.688;7.842;2023-08-06T16:36:04;2.78;;;2.55;;
78752;SDS011;68072;51.688;7.842;2023-08-06T16:38:30;3.17;;;2.77;;